Time;durP1;ratioP1;P1;durP2;ratioP2;P2;SDS_P1;SDS_P2;PMS_P1;PMS_P2;Temp;Humidity;BMP_temperature;BMP_pressure;BME280_temperature;BME280_humidity;BME280_pressure;Samples;Min_cycle;Max_cycle;Signal;HPM_P1;HPM_P2
2023/03/14 00:01:34;;;;;;;1.10;0.77;;;11.90;67.70;;;;;;5068890;28;20039;-64
2023/03/14 00:04:00;;;;;;;0.85;0.80;;;11.90;67.60;;;;;;5066098;28;20032;-64
2023/03/14 00:06:26;;;;;;;2.45;1.00;;;11.80;67.90;;;;;;5061868;28;20191;-64
2023/03/14 00:08:52;;;;;;;1.10;0.98;;;11.80;68.70;;;;;;5066277;28;20025;-65
2023/03/14 00:11:20;;;;;;;0.90;0.82;;;11.80;69.50;;;;;;5065128;28;20067;-64
2023/03/14 00:13:49;;;;;;;1.10;0.75;;;11.80;68.80;;;;;;5064418;28;20029;-64
2023/03/14 00:16:15;;;;;;;1.33;0.70;;;11.80;69.40;;;;;;5065354;28;20100;-64
2023/03/14 00:18:41;;;;;;;1.20;0.70;;;11.80;69.40;;;;;;5063637;28;20025;-65
2023/03/14 00:21:08;;;;;;;1.60;0.68;;;11.70;68.90;;;;;;5047554;28;20045;-64
2023/03/14 00:23:36;;;;;;;1.50;0.60;;;11.80;69.20;;;;;;5058539;28;20051;-65
2023/03/14 00:26:05;;;;;;;0.75;0.60;;;11.70;69.00;;;;;;5064175;28;20028;-65
2023/03/14 00:28:31;;;;;;;3.60;0.60;;;11.80;69.20;;;;;;5063401;28;20035;-65
2023/03/14 00:30:57;;;;;;;2.45;0.60;;;11.70;69.70;;;;;;5071457;28;20025;-63
2023/03/14 00:33:23;;;;;;;0.60;0.60;;;11.80;69.70;;;;;;5063246;28;20049;-63
2023/03/14 00:35:56;;;;;;;1.08;0.68;;;11.80;70.10;;;;;;5073463;28;20040;-64
2023/03/14 00:38:24;;;;;;;1.33;0.65;;;11.80;70.70;;;;;;5056755;28;20059;-63
2023/03/14 00:40:50;;;;;;;1.75;0.70;;;11.80;69.80;;;;;;5065573;28;20100;-63
2023/03/14 00:43:15;;;;;;;1.45;0.68;;;11.80;69.60;;;;;;5062627;28;20082;-62
2023/03/14 00:45:41;;;;;;;3.80;0.60;;;11.80;70.10;;;;;;5062188;28;20468;-63
2023/03/14 00:48:07;;;;;;;1.55;0.60;;;11.80;69.40;;;;;;5066437;28;20021;-64
2023/03/14 00:50:32;;;;;;;0.60;0.60;;;11.60;69.20;;;;;;5069272;28;20052;-62
2023/03/14 00:52:58;;;;;;;1.75;0.60;;;11.80;69.30;;;;;;5060036;28;20091;-62
2023/03/14 00:55:24;;;;;;;0.68;0.60;;;11.80;69.60;;;;;;5060521;28;20026;-62
2023/03/14 00:57:50;;;;;;;1.80;0.80;;;11.80;69.30;;;;;;5062310;28;20029;-61
2023/03/14 01:00:16;;;;;;;2.63;0.70;;;11.80;69.30;;;;;;5052671;28;20024;-63
2023/03/14 01:02:42;;;;;;;1.05;0.55;;;11.80;69.00;;;;;;5059300;28;20028;-62
2023/03/14 01:05:10;;;;;;;0.85;0.50;;;11.80;69.00;;;;;;5047380;28;20527;-63
2023/03/14 01:07:36;;;;;;;0.50;0.50;;;11.70;68.80;;;;;;5058142;28;20032;-62
2023/03/14 01:10:02;;;;;;;1.75;0.60;;;11.70;69.00;;;;;;5061714;28;20029;-62
2023/03/14 01:12:28;;;;;;;0.68;0.40;;;11.70;68.70;;;;;;5058032;28;20032;-63
2023/03/14 01:14:54;;;;;;;0.70;0.60;;;11.70;68.30;;;;;;5073925;28;20025;-64
2023/03/14 01:17:19;;;;;;;0.77;0.50;;;11.70;67.70;;;;;;5067756;28;20013;-63
2023/03/14 01:19:45;;;;;;;0.88;0.60;;;11.60;67.60;;;;;;5068623;28;20033;-64
2023/03/14 01:22:11;;;;;;;0.80;0.60;;;11.60;67.60;;;;;;5067262;28;20029;-64
2023/03/14 01:24:37;;;;;;;0.40;0.40;;;11.60;67.60;;;;;;5065434;28;20031;-64
2023/03/14 01:27:03;;;;;;;0.68;0.40;;;11.60;67.60;;;;;;5060105;28;20115;-64
2023/03/14 01:29:28;;;;;;;0.95;0.47;;;11.50;67.60;;;;;;5065341;28;20053;-63
2023/03/14 01:31:54;;;;;;;0.50;0.50;;;11.50;67.50;;;;;;5057290;28;20433;-62
2023/03/14 01:34:20;;;;;;;0.70;0.70;;;11.50;67.60;;;;;;5063730;28;20044;-63
2023/03/14 01:36:45;;;;;;;0.50;0.50;;;11.50;67.50;;;;;;5065544;28;20039;-62
2023/03/14 01:39:12;;;;;;;0.60;0.60;;;11.50;67.50;;;;;;5062017;28;20052;-64
2023/03/14 01:41:39;;;;;;;0.60;0.60;;;11.40;67.70;;;;;;5062331;28;20556;-63
2023/03/14 01:44:05;;;;;;;0.50;0.50;;;11.40;67.80;;;;;;5053173;28;20498;-63
2023/03/14 01:46:37;;;;;;;1.17;0.82;;;11.40;67.80;;;;;;5067489;28;20025;-62
2023/03/14 01:49:13;;;;;;;1.17;0.73;;;11.40;67.80;;;;;;5061275;28;20040;-63
2023/03/14 01:52:03;;;;;;;0.60;0.60;;;11.40;68.30;;;;;;5064161;28;20044;-63
2023/03/14 01:54:42;;;;;;;1.83;0.70;;;11.40;67.90;;;;;;5068424;28;20040;-63
2023/03/14 01:57:12;;;;;;;0.80;0.77;;;11.40;68.20;;;;;;5069082;28;20021;-63
2023/03/14 01:59:42;;;;;;;0.57;0.57;;;11.30;68.10;;;;;;5066837;28;20039;-63
2023/03/14 02:02:11;;;;;;;0.57;0.57;;;11.30;68.10;;;;;;5070568;28;20028;-63
2023/03/14 02:04:38;;;;;;;0.73;0.70;;;11.30;68.30;;;;;;5057058;28;20040;-62
2023/03/14 02:07:14;;;;;;;0.85;0.80;;;11.30;68.10;;;;;;5068580;28;20040;-64
2023/03/14 02:09:40;;;;;;;0.70;0.70;;;11.30;68.50;;;;;;5061749;28;20035;-63
2023/03/14 02:12:09;;;;;;;1.42;1.00;;;11.30;69.50;;;;;;5070228;28;20025;-63
2023/03/14 02:14:36;;;;;;;1.20;0.88;;;11.30;68.50;;;;;;5060232;28;20032;-63
2023/03/14 02:17:07;;;;;;;0.60;0.60;;;11.30;68.90;;;;;;5076159;28;20030;-63
2023/03/14 02:19:54;;;;;;;2.75;1.63;;;11.20;68.60;;;;;;5065288;28;20029;-64
2023/03/14 02:22:20;;;;;;;1.85;0.90;;;11.30;69.30;;;;;;5060155;28;20384;-63
2023/03/14 02:25:03;;;;;;;0.82;0.80;;;11.20;68.40;;;;;;5067921;28;20025;-63
2023/03/14 02:27:29;;;;;;;0.95;0.85;;;11.20;69.40;;;;;;5056691;28;20094;-62
2023/03/14 02:30:01;;;;;;;0.60;0.60;;;11.20;68.40;;;;;;5060428;28;20053;-64
2023/03/14 02:32:29;;;;;;;1.70;0.80;;;11.20;68.80;;;;;;5060611;28;20086;-62
2023/03/14 02:34:57;;;;;;;1.98;0.68;;;11.20;68.80;;;;;;5067385;28;20095;-63
2023/03/14 02:37:28;;;;;;;0.70;0.60;;;11.20;68.70;;;;;;5062608;28;20056;-64
2023/03/14 02:39:54;;;;;;;0.70;0.70;;;11.20;68.70;;;;;;5059281;28;20036;-63
2023/03/14 02:42:21;;;;;;;0.70;0.70;;;11.20;68.90;;;;;;5061213;28;20032;-63
2023/03/14 02:45:01;;;;;;;0.57;0.57;;;11.20;69.10;;;;;;5069654;28;21310;-64
2023/03/14 02:47:29;;;;;;;0.73;0.70;;;11.20;69.00;;;;;;5070275;28;20016;-64
2023/03/14 02:50:01;;;;;;;0.55;0.55;;;11.20;68.80;;;;;;5060692;28;20021;-63
2023/03/14 02:52:27;;;;;;;0.60;0.60;;;11.20;68.80;;;;;;5063634;28;20486;-62
2023/03/14 02:54:52;;;;;;;2.58;0.70;;;11.20;68.90;;;;;;5063722;28;20055;-63
2023/03/14 02:57:18;;;;;;;0.95;0.77;;;11.20;69.00;;;;;;5072327;28;20036;-63
2023/03/14 02:59:43;;;;;;;0.60;0.60;;;11.20;68.80;;;;;;5065081;28;20037;-63
2023/03/14 03:02:09;;;;;;;0.77;0.70;;;11.20;68.90;;;;;;5061401;28;20043;-63
2023/03/14 03:04:35;;;;;;;0.88;0.60;;;11.20;69.10;;;;;;5064401;28;20021;-63
2023/03/14 03:07:00;;;;;;;0.68;0.68;;;11.20;69.30;;;;;;5071005;28;20039;-63
2023/03/14 03:09:26;;;;;;;0.50;0.50;;;11.20;69.30;;;;;;5064429;28;20087;-62
2023/03/14 03:11:51;;;;;;;0.47;0.47;;;11.10;69.00;;;;;;5068862;28;20045;-64
2023/03/14 03:14:17;;;;;;;0.50;0.50;;;11.20;68.90;;;;;;5067165;28;20044;-62
2023/03/14 03:16:43;;;;;;;0.50;0.50;;;11.20;69.00;;;;;;5068328;28;20040;-63
2023/03/14 03:19:08;;;;;;;0.40;0.40;;;11.20;69.10;;;;;;5059161;28;20031;-61
2023/03/14 03:21:34;;;;;;;0.50;0.50;;;11.20;69.00;;;;;;5070288;28;20057;-62
2023/03/14 03:24:00;;;;;;;0.50;0.50;;;11.10;69.10;;;;;;5071157;28;20039;-62
2023/03/14 03:26:26;;;;;;;0.65;0.50;;;11.10;69.00;;;;;;5058566;28;20028;-62
2023/03/14 03:28:51;;;;;;;1.60;0.60;;;11.10;69.40;;;;;;5056908;28;20025;-64
2023/03/14 03:31:17;;;;;;;0.50;0.50;;;11.10;68.90;;;;;;5066044;28;20506;-62
2023/03/14 03:33:43;;;;;;;1.20;0.60;;;11.20;69.10;;;;;;5065213;28;20041;-62
2023/03/14 03:36:09;;;;;;;1.42;1.17;;;11.10;69.00;;;;;;5068964;28;20032;-62
2023/03/14 03:38:35;;;;;;;1.00;1.00;;;11.10;69.30;;;;;;5055437;28;20364;-64
2023/03/14 03:41:07;;;;;;;0.80;0.80;;;11.20;69.20;;;;;;5062347;28;20052;-64
2023/03/14 03:43:33;;;;;;;1.05;0.55;;;11.10;69.60;;;;;;5065817;28;20380;-63
2023/03/14 03:46:02;;;;;;;1.20;0.60;;;11.10;69.40;;;;;;5068002;28;20028;-64
2023/03/14 03:48:27;;;;;;;0.50;0.50;;;11.10;69.20;;;;;;5061964;28;20021;-63
2023/03/14 03:50:53;;;;;;;1.00;0.60;;;11.10;69.20;;;;;;5061643;28;20579;-64
2023/03/14 03:53:19;;;;;;;0.50;0.50;;;11.10;69.20;;;;;;5052251;28;20025;-63
2023/03/14 03:55:44;;;;;;;1.17;0.63;;;11.10;69.30;;;;;;5060810;28;20033;-62
2023/03/14 03:58:10;;;;;;;0.85;0.60;;;11.10;69.30;;;;;;5064871;28;20025;-64
2023/03/14 04:00:36;;;;;;;0.50;0.50;;;11.10;69.30;;;;;;5061204;28;20040;-62
2023/03/14 04:03:01;;;;;;;0.80;0.70;;;11.10;69.30;;;;;;5064669;28;20029;-63
2023/03/14 04:05:27;;;;;;;0.60;0.60;;;11.10;69.30;;;;;;5071675;28;20021;-63
2023/03/14 04:07:53;;;;;;;1.05;0.70;;;11.10;69.30;;;;;;5058772;28;20047;-63
2023/03/14 04:10:18;;;;;;;1.40;0.70;;;11.10;69.40;;;;;;5055953;28;20039;-63
2023/03/14 04:12:44;;;;;;;0.73;0.70;;;11.10;69.40;;;;;;5067803;28;20392;-64
2023/03/14 04:15:11;;;;;;;0.70;0.70;;;11.10;69.40;;;;;;5072550;28;20496;-63
2023/03/14 04:17:37;;;;;;;1.00;0.90;;;11.10;69.80;;;;;;5059242;28;20096;-63
2023/03/14 04:20:04;;;;;;;1.23;0.80;;;11.10;69.70;;;;;;5058372;28;20154;-64
2023/03/14 04:22:29;;;;;;;0.73;0.68;;;11.10;69.60;;;;;;5060433;28;20015;-62
2023/03/14 04:24:55;;;;;;;0.88;0.60;;;11.00;69.60;;;;;;5067206;28;20055;-63
2023/03/14 04:27:21;;;;;;;0.85;0.70;;;11.10;69.40;;;;;;5059105;28;20030;-62
2023/03/14 04:29:46;;;;;;;2.05;0.70;;;11.00;69.60;;;;;;5066468;28;20044;-64
2023/03/14 04:32:12;;;;;;;1.38;0.90;;;11.00;69.50;;;;;;5057679;28;20033;-64
2023/03/14 04:34:37;;;;;;;0.80;0.80;;;11.00;69.60;;;;;;5061499;28;20040;-62
2023/03/14 04:37:03;;;;;;;1.85;0.70;;;11.00;70.00;;;;;;5060591;28;20077;-64
2023/03/14 04:39:29;;;;;;;1.60;0.98;;;11.00;70.00;;;;;;5065974;28;20017;-64
2023/03/14 04:41:54;;;;;;;1.13;0.80;;;10.90;69.60;;;;;;5066073;28;20040;-64
2023/03/14 04:44:20;;;;;;;0.85;0.63;;;10.90;70.00;;;;;;5057872;28;20021;-64
2023/03/14 04:46:46;;;;;;;0.90;0.90;;;10.90;69.90;;;;;;5057242;28;20025;-64
2023/03/14 04:49:11;;;;;;;0.77;0.77;;;10.90;69.80;;;;;;5068460;28;20028;-63
2023/03/14 04:51:37;;;;;;;1.45;0.80;;;10.80;69.90;;;;;;5074219;28;20025;-64
2023/03/14 04:54:02;;;;;;;1.23;0.82;;;10.90;70.00;;;;;;5071683;28;20024;-64
2023/03/14 04:56:28;;;;;;;1.02;0.90;;;10.90;69.90;;;;;;5063303;28;20031;-63
2023/03/14 04:58:54;;;;;;;0.70;0.70;;;10.90;70.20;;;;;;5064855;28;20028;-64
2023/03/14 05:01:19;;;;;;;1.80;0.80;;;10.90;70.10;;;;;;5068838;28;20068;-64
2023/03/14 05:03:45;;;;;;;1.42;0.85;;;10.90;70.30;;;;;;5064122;28;20076;-64
2023/03/14 05:06:11;;;;;;;0.88;0.80;;;10.90;70.00;;;;;;5061842;28;20028;-64
2023/03/14 05:08:37;;;;;;;1.27;0.80;;;10.90;70.10;;;;;;5066146;28;20116;-62
2023/03/14 05:11:02;;;;;;;1.75;1.00;;;10.90;70.10;;;;;;5068383;28;20028;-64
2023/03/14 05:13:28;;;;;;;1.70;0.90;;;10.90;70.20;;;;;;5067063;28;20049;-63
2023/03/14 05:16:02;;;;;;;3.03;0.85;;;10.90;70.00;;;;;;5066299;28;20100;-62
2023/03/14 05:18:28;;;;;;;1.42;0.73;;;10.90;70.00;;;;;;5061325;28;20044;-61
2023/03/14 05:20:53;;;;;;;1.35;0.60;;;10.90;70.10;;;;;;5068667;28;20044;-63
2023/03/14 05:23:19;;;;;;;1.15;0.70;;;10.90;70.20;;;;;;5067902;28;20021;-62
2023/03/14 05:25:45;;;;;;;3.20;0.68;;;10.90;70.10;;;;;;5054195;28;20025;-63
2023/03/14 05:28:10;;;;;;;1.33;0.70;;;10.80;70.10;;;;;;5070152;28;20053;-64
2023/03/14 05:30:36;;;;;;;0.80;0.80;;;10.80;70.10;;;;;;5065864;28;20025;-64
2023/03/14 05:33:02;;;;;;;0.80;0.80;;;10.90;70.20;;;;;;5067115;28;20461;-63
2023/03/14 05:35:27;;;;;;;0.80;0.80;;;10.80;70.30;;;;;;5070451;28;20040;-63
2023/03/14 05:37:53;;;;;;;0.70;0.70;;;10.80;70.40;;;;;;5065293;28;20407;-63
2023/03/14 05:40:19;;;;;;;3.10;0.70;;;10.80;70.30;;;;;;5062983;28;20058;-62
2023/03/14 05:42:44;;;;;;;4.40;1.05;;;10.80;70.30;;;;;;5068675;28;20059;-63
2023/03/14 05:45:10;;;;;;;1.80;1.00;;;10.80;70.20;;;;;;5069481;28;20078;-64
2023/03/14 05:47:36;;;;;;;2.88;0.90;;;10.80;70.20;;;;;;5068673;28;20036;-63
2023/03/14 05:50:02;;;;;;;5.75;1.55;;;10.80;70.20;;;;;;5068817;28;20040;-63
2023/03/14 05:52:27;;;;;;;2.03;1.27;;;10.80;70.20;;;;;;5066697;28;20055;-64
2023/03/14 05:54:53;;;;;;;1.50;1.05;;;10.80;70.30;;;;;;5069386;28;20033;-62
2023/03/14 05:57:19;;;;;;;1.42;1.20;;;10.80;70.10;;;;;;5066435;28;20459;-63
2023/03/14 05:59:44;;;;;;;3.20;1.00;;;10.80;70.20;;;;;;5060825;28;20033;-63
2023/03/14 06:02:10;;;;;;;1.55;0.88;;;10.80;70.20;;;;;;5069992;28;20369;-63
2023/03/14 06:04:35;;;;;;;1.40;1.20;;;10.80;70.10;;;;;;5063485;28;20056;-63
2023/03/14 06:07:01;;;;;;;1.85;1.10;;;10.80;70.20;;;;;;5067756;28;20033;-62
2023/03/14 06:09:27;;;;;;;1.40;1.20;;;10.80;70.00;;;;;;5065728;28;20040;-63
2023/03/14 06:11:52;;;;;;;1.83;0.98;;;10.80;70.10;;;;;;5066761;28;20032;-65
2023/03/14 06:14:18;;;;;;;1.17;0.80;;;10.80;70.20;;;;;;5065925;28;20351;-62
2023/03/14 06:16:44;;;;;;;2.63;0.90;;;10.80;69.80;;;;;;5067964;28;20078;-62
2023/03/14 06:19:11;;;;;;;1.23;0.82;;;10.80;70.00;;;;;;5056387;28;20024;-63
2023/03/14 06:21:36;;;;;;;2.45;0.90;;;10.80;70.10;;;;;;5068640;28;20152;-64
2023/03/14 06:24:03;;;;;;;3.50;0.90;;;10.80;70.00;;;;;;5057110;28;20108;-63
2023/03/14 06:26:29;;;;;;;1.27;0.80;;;10.80;70.00;;;;;;5069695;28;20059;-63
2023/03/14 06:28:54;;;;;;;1.05;0.80;;;10.80;70.00;;;;;;5054561;28;20037;-64
2023/03/14 06:31:20;;;;;;;1.05;0.80;;;10.80;70.10;;;;;;5067467;28;20021;-62
2023/03/14 06:33:45;;;;;;;0.60;0.60;;;10.80;70.10;;;;;;5059075;28;20492;-63
2023/03/14 06:36:11;;;;;;;1.15;0.60;;;10.90;70.10;;;;;;5065760;28;20081;-63
2023/03/14 06:38:37;;;;;;;1.20;1.02;;;10.90;69.90;;;;;;5062710;28;20131;-63
2023/03/14 06:41:04;;;;;;;4.50;2.22;;;10.90;69.90;;;;;;5076959;28;20086;-64
2023/03/14 06:43:30;;;;;;;6.15;3.55;;;10.90;69.90;;;;;;5071008;28;20468;-63
2023/03/14 06:45:56;;;;;;;9.98;4.85;;;10.90;70.10;;;;;;5068464;28;20021;-63
2023/03/14 06:48:21;;;;;;;7.00;4.72;;;10.90;70.10;;;;;;5060604;28;20033;-63
2023/03/14 06:50:48;;;;;;;7.43;4.72;;;11.00;70.10;;;;;;5063977;28;20041;-63
2023/03/14 06:53:14;;;;;;;5.53;3.90;;;11.00;70.10;;;;;;5064630;28;20028;-63
2023/03/14 06:55:39;;;;;;;3.80;2.78;;;11.00;70.10;;;;;;5066698;28;20048;-63
2023/03/14 06:58:07;;;;;;;3.42;1.60;;;11.00;70.10;;;;;;5063489;28;20023;-63
2023/03/14 07:00:34;;;;;;;2.25;0.90;;;11.00;70.00;;;;;;5068633;28;20056;-63
2023/03/14 07:02:59;;;;;;;1.88;0.93;;;11.10;70.10;;;;;;5064387;28;20029;-64
2023/03/14 07:05:25;;;;;;;2.53;0.80;;;11.10;70.10;;;;;;5067676;28;20055;-63
2023/03/14 07:07:50;;;;;;;3.25;0.90;;;11.10;70.00;;;;;;5063926;28;20063;-65
2023/03/14 07:10:16;;;;;;;3.30;1.08;;;11.10;70.10;;;;;;5063967;28;20033;-63
2023/03/14 07:12:42;;;;;;;1.15;0.80;;;11.20;70.00;;;;;;5099114;28;20025;-63
2023/03/14 07:15:08;;;;;;;2.40;1.05;;;11.20;69.90;;;;;;5056944;28;20025;-64
2023/03/14 07:17:34;;;;;;;1.13;0.90;;;11.30;69.90;;;;;;5066505;28;20059;-65
2023/03/14 07:20:00;;;;;;;1.00;0.82;;;11.30;69.80;;;;;;5065467;28;20037;-64
2023/03/14 07:22:26;;;;;;;0.93;0.80;;;11.30;69.80;;;;;;5060759;28;20017;-63
2023/03/14 07:24:52;;;;;;;1.63;1.00;;;11.30;69.80;;;;;;5064133;28;20082;-63
2023/03/14 07:27:17;;;;;;;3.05;1.23;;;11.30;69.60;;;;;;5056757;28;20144;-64
2023/03/14 07:29:43;;;;;;;3.00;1.30;;;11.30;69.50;;;;;;5065975;28;20398;-64
2023/03/14 07:32:09;;;;;;;1.58;1.08;;;11.30;69.40;;;;;;5062955;28;20033;-64
2023/03/14 07:34:35;;;;;;;2.47;1.17;;;11.30;69.20;;;;;;5067263;28;20040;-64
2023/03/14 07:37:00;;;;;;;2.00;0.98;;;11.40;69.10;;;;;;5061065;28;20040;-63
2023/03/14 07:39:26;;;;;;;1.63;1.20;;;11.40;69.20;;;;;;5072546;28;20025;-64
2023/03/14 07:41:52;;;;;;;2.67;1.30;;;11.40;69.10;;;;;;5064255;28;20047;-64
2023/03/14 07:44:17;;;;;;;3.95;1.40;;;11.40;69.00;;;;;;5062505;28;20031;-63
2023/03/14 07:46:43;;;;;;;1.92;1.08;;;11.50;69.20;;;;;;5068726;28;20040;-64
2023/03/14 07:49:08;;;;;;;1.23;0.80;;;11.50;69.10;;;;;;5066714;28;20049;-64
2023/03/14 07:51:34;;;;;;;1.73;0.80;;;11.50;69.00;;;;;;5054255;28;20025;-63
2023/03/14 07:54:00;;;;;;;0.85;0.80;;;11.60;69.00;;;;;;5060877;28;20087;-63
2023/03/14 07:56:26;;;;;;;1.13;0.80;;;11.60;68.90;;;;;;5061716;28;20333;-63
2023/03/14 07:58:51;;;;;;;1.05;0.70;;;11.70;68.80;;;;;;5063576;28;20051;-64
2023/03/14 08:01:17;;;;;;;1.05;0.77;;;11.70;68.80;;;;;;5059393;28;20052;-64
2023/03/14 08:03:42;;;;;;;5.55;0.80;;;11.80;68.60;;;;;;5066825;28;20158;-64
2023/03/14 08:06:08;;;;;;;3.95;1.83;;;11.90;68.50;;;;;;5057667;28;20037;-64
2023/03/14 08:08:34;;;;;;;2.67;1.15;;;11.90;68.30;;;;;;5060686;28;20054;-64
2023/03/14 08:11:09;;;;;;;0.88;0.70;;;12.00;68.30;;;;;;5063767;28;20024;-64
2023/03/14 08:13:39;;;;;;;0.70;0.60;;;12.00;68.00;;;;;;5058183;28;20029;-64
2023/03/14 08:16:05;;;;;;;1.45;0.90;;;12.10;67.90;;;;;;5056898;28;20025;-64
2023/03/14 08:18:31;;;;;;;1.88;0.70;;;12.10;67.80;;;;;;5064741;28;20055;-64
2023/03/14 08:20:57;;;;;;;3.05;0.70;;;12.10;67.70;;;;;;5060969;28;20033;-64
2023/03/14 08:23:23;;;;;;;0.95;0.80;;;12.20;67.40;;;;;;5054369;28;20043;-64
2023/03/14 08:25:50;;;;;;;2.05;0.60;;;12.20;67.40;;;;;;5057813;28;20057;-64
2023/03/14 08:28:16;;;;;;;1.00;0.70;;;12.30;67.40;;;;;;5060653;28;20068;-63
2023/03/14 08:30:42;;;;;;;0.95;0.60;;;12.30;67.30;;;;;;5055126;28;20384;-63
2023/03/14 08:33:07;;;;;;;1.27;0.63;;;12.40;67.20;;;;;;5049495;28;20049;-63
2023/03/14 08:35:33;;;;;;;1.40;0.60;;;12.50;67.10;;;;;;5062785;28;20441;-63
2023/03/14 08:37:59;;;;;;;0.70;0.60;;;12.60;66.80;;;;;;5060599;28;20025;-64
2023/03/14 08:40:25;;;;;;;0.60;0.60;;;12.60;66.60;;;;;;5065150;28;20036;-65
2023/03/14 08:42:50;;;;;;;1.15;0.60;;;12.70;66.40;;;;;;5070864;28;20118;-64
2023/03/14 08:45:16;;;;;;;1.85;0.60;;;12.80;66.40;;;;;;5062895;28;20036;-63
2023/03/14 08:47:43;;;;;;;1.83;0.73;;;12.80;66.20;;;;;;5061203;28;20021;-63
2023/03/14 08:50:10;;;;;;;3.00;1.05;;;12.90;66.30;;;;;;5069434;28;20084;-64
2023/03/14 08:52:37;;;;;;;2.05;0.73;;;13.00;66.20;;;;;;5067803;28;20029;-64
2023/03/14 08:55:03;;;;;;;3.42;1.00;;;13.20;66.00;;;;;;5071775;28;20036;-64
2023/03/14 08:57:29;;;;;;;2.08;0.90;;;13.30;65.80;;;;;;5066127;28;20086;-64
2023/03/14 08:59:56;;;;;;;1.33;0.57;;;13.30;65.40;;;;;;5065410;28;20092;-64
2023/03/14 09:02:22;;;;;;;1.55;0.80;;;13.50;65.20;;;;;;5071088;28;20032;-64
2023/03/14 09:04:50;;;;;;;0.70;0.50;;;13.60;65.00;;;;;;5067335;28;20098;-64
2023/03/14 09:07:16;;;;;;;0.85;0.55;;;13.70;64.70;;;;;;5062827;28;20186;-64
2023/03/14 09:09:41;;;;;;;0.68;0.60;;;13.80;65.00;;;;;;5069715;28;20495;-66
2023/03/14 09:12:07;;;;;;;3.28;0.93;;;13.90;64.90;;;;;;5063291;28;20483;-64
2023/03/14 09:14:33;;;;;;;0.65;0.60;;;14.00;64.20;;;;;;5063689;28;20025;-64
2023/03/14 09:16:58;;;;;;;0.63;0.52;;;14.20;64.40;;;;;;5066750;28;20017;-65
2023/03/14 09:19:24;;;;;;;5.88;0.70;;;14.30;64.40;;;;;;5067550;28;20224;-64
2023/03/14 09:21:49;;;;;;;0.55;0.55;;;14.50;64.10;;;;;;5056571;28;20392;-64
2023/03/14 09:24:16;;;;;;;0.45;0.40;;;14.60;63.60;;;;;;5064202;28;20017;-64
2023/03/14 09:26:42;;;;;;;1.17;0.60;;;14.70;63.20;;;;;;5063075;28;20036;-63
2023/03/14 09:29:08;;;;;;;2.78;0.82;;;14.80;63.10;;;;;;5066908;28;20033;-65
2023/03/14 09:31:34;;;;;;;1.75;0.70;;;15.00;62.70;;;;;;5058539;28;20502;-64
2023/03/14 09:34:00;;;;;;;1.30;0.80;;;15.10;61.90;;;;;;5059959;28;20460;-64
2023/03/14 09:36:26;;;;;;;2.17;0.80;;;15.20;61.70;;;;;;5057550;28;20050;-63
2023/03/14 09:38:51;;;;;;;1.40;0.70;;;15.30;61.00;;;;;;5061937;28;20082;-63
2023/03/14 09:41:29;;;;;;;2.42;0.60;;;15.40;60.40;;;;;;5059845;28;20037;-63
2023/03/14 09:44:16;;;;;;;2.33;0.57;;;15.50;59.90;;;;;;5056763;28;20087;-64
2023/03/14 09:46:47;;;;;;;1.70;0.70;;;15.60;58.80;;;;;;5054024;28;20040;-63
2023/03/14 09:49:28;;;;;;;0.75;0.50;;;15.60;58.30;;;;;;5047878;28;20036;-64
2023/03/14 09:51:56;;;;;;;1.75;0.52;;;15.60;57.80;;;;;;5091842;28;20029;-63
2023/03/14 09:54:36;;;;;;;1.55;0.50;;;15.60;58.40;;;;;;5048779;28;20043;-64
2023/03/14 09:57:04;;;;;;;1.42;0.60;;;15.50;57.70;;;;;;5048403;28;20033;-63
2023/03/14 09:59:30;;;;;;;1.10;0.60;;;15.60;58.90;;;;;;5057999;28;20020;-65
2023/03/14 10:02:02;;;;;;;1.92;0.43;;;15.70;59.00;;;;;;5055224;28;20535;-64
2023/03/14 10:04:29;;;;;;;0.65;0.40;;;15.80;59.20;;;;;;5053773;28;20116;-64
2023/03/14 10:06:55;;;;;;;0.60;0.50;;;16.00;58.60;;;;;;5059770;28;20025;-62
2023/03/14 10:09:26;;;;;;;0.85;0.50;;;16.10;58.00;;;;;;5059589;28;20292;-63
2023/03/14 10:12:01;;;;;;;0.70;0.50;;;16.20;57.70;;;;;;5051563;28;20044;-63
2023/03/14 10:14:33;;;;;;;0.68;0.40;;;16.20;56.70;;;;;;5061155;28;20021;-63
2023/03/14 10:17:09;;;;;;;1.00;0.55;;;16.20;56.50;;;;;;5060394;28;20041;-63
2023/03/14 10:19:36;;;;;;;0.73;0.50;;;16.10;56.50;;;;;;5057307;28;20036;-64
2023/03/14 10:22:04;;;;;;;0.65;0.50;;;16.00;57.00;;;;;;5056653;28;20164;-64
2023/03/14 10:24:33;;;;;;;2.75;0.80;;;16.00;56.50;;;;;;5066133;28;20032;-64
2023/03/14 10:27:17;;;;;;;0.75;0.60;;;16.00;56.50;;;;;;5055444;28;20029;-63
2023/03/14 10:29:58;;;;;;;2.28;0.50;;;15.90;56.30;;;;;;5052571;28;20037;-64
2023/03/14 10:32:32;;;;;;;0.40;0.40;;;15.90;56.90;;;;;;5041597;28;20033;-65
2023/03/14 10:35:14;;;;;;;0.90;0.50;;;15.90;57.60;;;;;;5066357;28;20032;-64
2023/03/14 10:37:58;;;;;;;0.73;0.68;;;15.90;57.10;;;;;;5060787;28;20033;-64
2023/03/14 10:40:31;;;;;;;1.52;1.27;;;15.90;57.40;;;;;;5061243;28;20107;-65
2023/03/14 10:43:07;;;;;;;1.13;0.40;;;16.00;57.40;;;;;;5060884;28;20094;-65
2023/03/14 10:45:40;;;;;;;6.53;0.63;;;16.00;56.90;;;;;;5053394;28;20048;-63
2023/03/14 10:48:23;;;;;;;0.50;0.50;;;16.00;56.60;;;;;;5063795;28;20081;-64
2023/03/14 10:51:10;;;;;;;0.30;0.30;;;16.00;54.90;;;;;;5062147;28;20055;-63
2023/03/14 10:53:43;;;;;;;0.47;0.40;;;16.00;54.60;;;;;;5061591;28;20511;-63
2023/03/14 10:56:19;;;;;;;1.13;0.50;;;16.00;54.70;;;;;;5058239;28;20032;-64
2023/03/14 10:58:56;;;;;;;0.75;0.50;;;15.90;54.40;;;;;;5057427;28;20055;-63
2023/03/14 11:02:03;;;;;;;2.40;0.50;;;15.90;53.90;;;;;;5051885;28;20041;-62
2023/03/14 11:04:44;;;;;;;0.50;0.50;;;15.90;54.10;;;;;;5061418;28;20054;-64
2023/03/14 11:07:32;;;;;;;1.25;0.52;;;15.80;54.20;;;;;;5068461;28;20032;-63
2023/03/14 11:10:13;;;;;;;1.67;0.60;;;15.80;54.60;;;;;;5054230;28;20089;-62
2023/03/14 11:12:51;;;;;;;0.82;0.50;;;15.80;54.60;;;;;;5054089;28;20025;-64
2023/03/14 11:15:24;;;;;;;0.40;0.40;;;15.80;54.80;;;;;;5062564;28;20471;-64
2023/03/14 11:17:59;;;;;;;0.30;0.30;;;15.90;54.20;;;;;;5058375;28;20402;-62
2023/03/14 11:20:35;;;;;;;0.90;0.50;;;15.90;54.20;;;;;;5065824;28;20032;-63
2023/03/14 11:23:01;;;;;;;0.40;0.40;;;16.00;53.90;;;;;;5062768;28;20032;-62
2023/03/14 11:25:45;;;;;;;0.68;0.60;;;16.10;54.30;;;;;;5048782;28;20036;-63
2023/03/14 11:28:26;;;;;;;0.32;0.32;;;16.20;52.80;;;;;;5052512;28;20039;-63
2023/03/14 11:30:53;;;;;;;1.25;0.40;;;16.30;53.00;;;;;;5047949;28;20025;-63
2023/03/14 11:33:27;;;;;;;1.17;0.40;;;16.30;53.70;;;;;;5046486;28;20254;-64
2023/03/14 11:36:01;;;;;;;0.40;0.40;;;16.40;53.70;;;;;;5054377;28;20037;-64
2023/03/14 11:38:31;;;;;;;;;;;16.50;53.10;;;;;;5063417;28;20029;-64
2023/03/14 11:41:01;;;;;;;0.98;0.43;;;16.50;53.40;;;;;;5060132;28;19917;-64
2023/03/14 11:43:38;;;;;;;1.13;0.55;;;16.50;52.80;;;;;;5058924;28;20099;-64
2023/03/14 11:46:14;;;;;;;0.57;0.40;;;16.40;52.80;;;;;;5061141;28;20116;-62
2023/03/14 11:48:42;;;;;;;2.15;0.50;;;16.30;52.70;;;;;;5061216;28;20032;-64
2023/03/14 11:51:14;;;;;;;0.70;0.40;;;16.30;53.20;;;;;;5063964;28;20071;-63
2023/03/14 11:54:24;;;;;;;0.95;0.50;;;16.20;53.00;;;;;;5055685;28;20060;-63
2023/03/14 11:57:00;;;;;;;0.75;0.50;;;16.10;52.90;;;;;;5031921;28;20060;-63
2023/03/14 11:59:57;;;;;;;3.13;0.65;;;16.00;52.90;;;;;;5033863;28;20088;-63
2023/03/14 12:02:50;;;;;;;1.02;0.70;;;15.90;53.10;;;;;;5038971;28;20527;-65
2023/03/14 12:05:37;;;;;;;0.47;0.47;;;15.80;53.80;;;;;;5041016;28;20065;-63
2023/03/14 12:08:08;;;;;;;0.68;0.68;;;15.80;54.20;;;;;;5038050;28;20045;-63
2023/03/14 12:10:56;;;;;;;0.60;0.60;;;15.60;54.20;;;;;;5036004;28;20033;-63
2023/03/14 12:13:22;;;;;;;1.25;0.68;;;15.60;54.60;;;;;;5022456;28;20145;-63
2023/03/14 12:15:58;;;;;;;0.93;0.50;;;15.40;54.70;;;;;;5037589;28;20038;-63
2023/03/14 12:18:30;;;;;;;0.50;0.50;;;15.30;55.10;;;;;;5035247;28;20043;-63
2023/03/14 12:21:05;;;;;;;0.73;0.50;;;15.10;55.50;;;;;;5043562;28;20051;-63
2023/03/14 12:23:55;;;;;;;0.50;0.40;;;15.00;56.10;;;;;;5043165;28;20108;-64
2023/03/14 12:26:24;;;;;;;1.33;0.55;;;14.90;56.30;;;;;;5024673;28;20528;-63
2023/03/14 12:28:56;;;;;;;1.02;0.50;;;14.70;56.70;;;;;;5036948;28;20064;-65
2023/03/14 12:31:33;;;;;;;0.75;0.60;;;14.60;57.00;;;;;;5039174;28;20037;-64
2023/03/14 12:34:09;;;;;;;2.22;0.70;;;14.40;57.60;;;;;;5059627;28;20098;-62
2023/03/14 12:36:50;;;;;;;0.65;0.57;;;14.30;57.60;;;;;;5057446;28;20467;-63
2023/03/14 12:39:22;;;;;;;0.52;0.52;;;14.10;58.20;;;;;;5060801;28;20021;-64
2023/03/14 12:42:20;;;;;;;0.95;0.50;;;14.00;58.60;;;;;;5060791;28;20032;-64
2023/03/14 12:44:48;;;;;;;0.55;0.50;;;13.90;59.10;;;;;;5061340;28;20029;-64
2023/03/14 12:47:16;;;;;;;0.75;0.50;;;13.80;59.00;;;;;;5063614;28;20033;-63
2023/03/14 12:49:42;;;;;;;5.32;0.90;;;13.80;59.90;;;;;;5067093;28;20480;-63
2023/03/14 12:52:19;;;;;;;0.80;0.60;;;13.70;59.60;;;;;;5062472;28;20028;-64
2023/03/14 12:55:03;;;;;;;0.68;0.60;;;13.60;60.60;;;;;;5058858;28;20064;-62
2023/03/14 12:57:47;;;;;;;1.52;0.70;;;13.50;61.80;;;;;;5064029;28;20043;-62